createdAt,value
2022-08-16T00:01:45.900Z,89.01
2022-08-16T00:06:48.345Z,89.41
2022-08-16T00:11:52.561Z,89.98
2022-08-16T00:17:06.471Z,90.73
2022-08-16T00:22:16.386Z,90.45
2022-08-16T00:27:18.239Z,90.31
2022-08-16T00:32:20.021Z,90.16
2022-08-16T00:37:57.807Z,90.37
2022-08-16T00:42:47.575Z,89.51
2022-08-16T00:47:56.721Z,90.11
2022-08-16T00:52:59.191Z,89.91
2022-08-16T00:58:01.047Z,90.17
2022-08-16T01:03:08.141Z,89.53
2022-08-16T01:08:36.157Z,90.04
2022-08-16T01:13:39.006Z,89.63
2022-08-16T01:18:48.617Z,89.52
2022-08-16T01:24:52.466Z,89.30
2022-08-16T01:29:59.965Z,89.47
2022-08-16T01:35:06.802Z,89.33
2022-08-16T01:40:09.137Z,89.21
2022-08-16T01:45:10.767Z,89.24
2022-08-16T01:50:42.508Z,88.73
2022-08-16T01:55:35.568Z,89.84
2022-08-16T02:00:38.753Z,89.85
2022-08-16T02:05:42.157Z,89.89
2022-08-16T02:10:48.402Z,90.28
2022-08-16T02:15:50.515Z,89.46
2022-08-16T02:20:54.326Z,89.69
2022-08-16T02:25:57.161Z,90.30
2022-08-16T02:31:06.518Z,90.02
2022-08-16T02:36:14.159Z,89.67
2022-08-16T02:41:23.469Z,89.87
2022-08-16T02:46:30.217Z,89.39
2022-08-16T02:51:38.296Z,89.20
2022-08-16T02:56:42.936Z,89.18
2022-08-16T03:01:50.225Z,89.30
2022-08-16T03:06:59.154Z,88.49
2022-08-16T03:12:16.684Z,87.84
2022-08-16T03:17:20.166Z,87.32
2022-08-16T03:22:29.600Z,87.18
2022-08-16T03:27:36.419Z,87.36
2022-08-16T03:32:40.356Z,86.17
2022-08-16T03:38:01.434Z,86.81
2022-08-16T03:43:20.667Z,85.90
2022-08-16T03:48:39.675Z,86.55
2022-08-16T03:53:57.851Z,86.60
2022-08-16T03:59:03.214Z,86.85
2022-08-16T04:04:11.763Z,86.13
2022-08-16T04:09:20.767Z,86.12
2022-08-16T04:14:32.707Z,86.45
2022-08-16T04:19:36.498Z,86.05
2022-08-16T04:24:38.362Z,85.98
2022-08-16T04:29:44.150Z,85.93
2022-08-16T04:34:49.184Z,86.01
2022-08-16T04:39:55.272Z,85.30
2022-08-16T04:45:02.056Z,85.19
2022-08-16T04:50:18.145Z,85.57
2022-08-16T04:55:53.079Z,84.95
2022-08-16T05:00:57.426Z,84.49
2022-08-16T05:06:05.249Z,84.74
2022-08-16T05:11:10.509Z,84.73
2022-08-16T05:16:21.480Z,84.39
2022-08-16T05:21:28.423Z,83.63
2022-08-16T05:26:40.714Z,83.65
2022-08-16T05:31:48.390Z,83.55
2022-08-16T05:36:57.402Z,83.06
2022-08-16T05:42:06.297Z,82.45
2022-08-16T05:47:09.157Z,81.70
2022-08-16T05:52:20.722Z,81.28
2022-08-16T05:57:24.365Z,80.77
2022-08-16T06:02:33.443Z,80.49
2022-08-16T06:07:36.634Z,80.30
2022-08-16T06:12:47.040Z,79.42
2022-08-16T06:17:56.661Z,79.13
2022-08-16T06:23:04.132Z,77.96
2022-08-16T06:28:35.716Z,76.94
2022-08-16T06:33:42.321Z,75.76
2022-08-16T06:38:55.558Z,76.28
2022-08-16T06:44:21.389Z,74.90
2022-08-16T06:49:29.867Z,72.32
2022-08-16T06:54:34.550Z,74.40
2022-08-16T06:59:52.698Z,72.88
2022-08-16T07:04:56.216Z,69.91
2022-08-16T07:09:59.446Z,71.12
2022-08-16T07:15:01.381Z,68.41
2022-08-16T07:20:34.650Z,67.30
2022-08-16T07:25:31.017Z,68.36
2022-08-16T07:30:45.313Z,68.49
2022-08-16T07:36:09.738Z,65.09
2022-08-16T07:41:15.886Z,64.99
2022-08-16T07:46:38.852Z,62.53
2022-08-16T07:51:54.282Z,64.11
2022-08-16T07:56:58.232Z,61.65
2022-08-16T08:02:00.600Z,60.91
2022-08-16T08:07:02.530Z,60.54
2022-08-16T08:12:32.663Z,60.13
2022-08-16T08:17:42.506Z,60.00
2022-08-16T08:22:48.033Z,58.46
2022-08-16T08:27:51.456Z,58.68
2022-08-16T08:33:01.051Z,57.80
2022-08-16T08:38:10.029Z,57.96
2022-08-16T08:43:18.107Z,58.50
2022-08-16T08:48:32.994Z,57.72
2022-08-16T08:53:39.719Z,56.49
2022-08-16T08:58:47.093Z,56.78
2022-08-16T09:04:06.171Z,56.27
2022-08-16T09:09:09.549Z,56.02
2022-08-16T09:14:24.705Z,56.01
2022-08-16T09:19:32.818Z,56.71
2022-08-16T09:24:52.551Z,55.51
2022-08-16T09:29:59.951Z,56.16
2022-08-16T09:35:02.845Z,55.87
2022-08-16T09:40:32.735Z,55.01
2022-08-16T09:45:30.058Z,54.80
2022-08-16T09:50:38.218Z,54.19
2022-08-16T09:55:44.486Z,54.24
2022-08-16T10:00:46.592Z,52.53
2022-08-16T10:05:49.144Z,51.27
2022-08-16T10:11:09.243Z,52.06
2022-08-16T10:21:16.772Z,52.18
2022-08-16T10:27:03.737Z,51.22
2022-08-16T10:31:45.339Z,52.08
2022-08-16T10:36:48.062Z,49.65
2022-08-16T10:41:55.920Z,49.89
2022-08-16T10:46:57.768Z,50.85
2022-08-16T10:52:02.954Z,50.08
2022-08-16T10:57:19.523Z,49.70
2022-08-16T11:02:59.636Z,49.21
2022-08-16T11:07:52.394Z,49.80
2022-08-16T11:12:55.382Z,48.75
2022-08-16T11:23:18.577Z,48.06
2022-08-16T11:33:52.575Z,49.11
2022-08-16T11:38:57.324Z,48.69
2022-08-16T11:44:01.042Z,48.07
2022-08-16T11:49:06.712Z,47.90
2022-08-16T11:54:20.918Z,47.59
2022-08-16T11:59:28.457Z,47.65
2022-08-16T12:04:31.504Z,46.71
2022-08-16T12:09:33.471Z,46.95
2022-08-16T12:14:41.679Z,47.14
2022-08-16T12:19:47.315Z,46.60
2022-08-16T12:24:51.891Z,46.61
2022-08-16T12:29:54.888Z,46.53
2022-08-16T12:35:01.737Z,46.50
2022-08-16T12:40:07.418Z,45.68
2022-08-16T12:45:28.247Z,45.64
2022-08-16T12:50:33.321Z,46.09
2022-08-16T12:55:41.975Z,45.86
2022-08-16T13:00:46.001Z,45.51
2022-08-16T13:05:55.523Z,45.76
2022-08-16T13:10:58.231Z,44.80
2022-08-16T13:16:05.757Z,44.59
2022-08-16T13:21:17.161Z,45.02
2022-08-16T13:26:18.838Z,45.25
2022-08-16T13:31:20.451Z,45.03
2022-08-16T13:36:45.710Z,44.37
2022-08-16T13:41:44.049Z,44.43
2022-08-16T13:46:56.820Z,43.32
2022-08-16T13:51:58.979Z,43.02
2022-08-16T13:57:01.794Z,44.03
2022-08-16T14:02:06.801Z,44.30
2022-08-16T14:07:11.484Z,43.64
2022-08-16T14:12:21.941Z,44.05
2022-08-16T14:17:24.546Z,43.02
2022-08-16T14:22:31.356Z,44.21
2022-08-16T14:27:35.905Z,43.63
2022-08-16T14:32:41.666Z,43.77
2022-08-16T14:37:52.699Z,43.46
2022-08-16T14:43:06.885Z,43.61
2022-08-16T14:48:09.418Z,42.80
2022-08-16T14:53:11.247Z,43.09
2022-08-16T14:58:19.517Z,42.88
2022-08-16T15:03:25.480Z,42.06
2022-08-16T15:08:36.478Z,42.82
2022-08-16T15:13:41.034Z,42.53
2022-08-16T15:18:42.612Z,42.54
2022-08-16T15:23:48.406Z,42.76
2022-08-16T15:28:51.208Z,43.12
2022-08-16T15:33:56.604Z,43.21
2022-08-16T15:39:06.781Z,43.11
2022-08-16T15:44:23.801Z,43.06
2022-08-16T15:49:37.231Z,43.08
2022-08-16T15:54:52.405Z,42.93
2022-08-16T15:59:56.381Z,42.11
2022-08-16T16:05:14.042Z,43.10
2022-08-16T16:10:15.667Z,43.24
2022-08-16T16:15:20.196Z,43.72
2022-08-16T16:20:27.249Z,43.22
2022-08-16T16:25:29.968Z,42.94
2022-08-16T16:30:38.292Z,43.57
2022-08-16T16:35:47.173Z,43.60
2022-08-16T16:41:02.107Z,43.60
2022-08-16T16:46:39.073Z,44.24
2022-08-16T16:51:28.019Z,44.75
2022-08-16T16:56:36.913Z,44.83
2022-08-16T17:01:59.920Z,44.82
2022-08-16T17:07:10.892Z,44.79
2022-08-16T17:12:22.678Z,45.15
2022-08-16T17:17:29.584Z,45.33
2022-08-16T17:22:32.982Z,45.45
2022-08-16T17:27:35.447Z,45.64
2022-08-16T17:32:46.651Z,45.99
2022-08-16T17:39:27.327Z,46.52
2022-08-16T17:43:13.976Z,47.07
2022-08-16T17:48:15.524Z,46.38
2022-08-16T17:53:17.369Z,47.61
2022-08-16T17:58:22.419Z,46.83
2022-08-16T18:04:02.962Z,47.45
2022-08-16T18:09:00.317Z,47.75
2022-08-16T18:14:05.746Z,46.59
2022-08-16T18:19:07.629Z,47.74
2022-08-16T18:24:11.057Z,46.90
2022-08-16T18:29:13.907Z,47.92
2022-08-16T18:34:15.454Z,48.84
2022-08-16T18:39:17.001Z,48.75
2022-08-16T18:44:24.988Z,49.26
2022-08-16T18:49:28.647Z,48.73
2022-08-16T18:54:32.256Z,48.88
2022-08-16T18:59:34.004Z,48.92
2022-08-16T19:04:55.075Z,49.75
2022-08-16T19:10:00.022Z,50.76
2022-08-16T19:15:01.693Z,52.37
2022-08-16T19:20:10.032Z,52.63
2022-08-16T19:25:12.587Z,52.51
2022-08-16T19:30:17.652Z,52.90
2022-08-16T19:35:19.287Z,53.25
2022-08-16T19:40:37.666Z,54.35
2022-08-16T19:45:45.335Z,55.26
2022-08-16T19:50:47.745Z,55.18
2022-08-16T19:55:49.399Z,55.76
2022-08-16T20:00:52.482Z,55.61
2022-08-16T20:05:59.253Z,55.39
2022-08-16T20:11:01.149Z,56.00
2022-08-16T20:16:02.832Z,55.43
2022-08-16T20:21:06.792Z,55.43
2022-08-16T20:26:08.396Z,55.50
2022-08-16T20:31:11.427Z,56.62
2022-08-16T20:36:16.109Z,55.93
2022-08-16T20:41:18.833Z,56.95
2022-08-16T20:46:20.512Z,56.35
2022-08-16T20:51:22.122Z,57.32
2022-08-16T20:56:23.787Z,57.20
2022-08-16T21:01:25.467Z,58.00
2022-08-16T21:06:54.085Z,58.34
2022-08-16T21:11:57.687Z,58.38
2022-08-16T21:17:01.384Z,59.89
2022-08-16T21:22:17.973Z,60.31
2022-08-16T21:27:19.721Z,60.38
2022-08-16T21:32:34.886Z,59.13
2022-08-16T21:37:37.573Z,59.14
2022-08-16T21:42:41.211Z,59.38
2022-08-16T21:47:43.537Z,58.72
2022-08-16T21:52:45.112Z,59.49
2022-08-16T21:57:46.675Z,59.58
2022-08-16T22:02:51.353Z,58.66
2022-08-16T22:07:55.406Z,58.49
2022-08-16T22:13:00.011Z,57.65
2022-08-16T22:18:01.681Z,57.81
2022-08-16T22:23:19.071Z,58.79
2022-08-16T22:28:22.023Z,58.98
2022-08-16T22:33:26.492Z,58.76
2022-08-16T22:38:53.886Z,58.58
2022-08-16T22:43:50.810Z,58.99
2022-08-16T22:48:52.396Z,58.85
2022-08-16T22:53:54.749Z,58.91
2022-08-16T22:58:56.496Z,58.39
2022-08-16T23:03:58.418Z,58.69
2022-08-16T23:08:59.977Z,59.32
2022-08-16T23:14:01.874Z,59.90
2022-08-16T23:19:11.517Z,60.35
2022-08-16T23:24:13.985Z,59.96
2022-08-16T23:29:25.601Z,60.03
2022-08-16T23:34:28.557Z,59.59
2022-08-16T23:39:30.180Z,59.90
2022-08-16T23:44:55.431Z,60.39
2022-08-16T23:50:00.356Z,60.94
2022-08-16T23:55:05.602Z,61.47
